Time;durP1;ratioP1;P1;durP2;ratioP2;P2;SDS_P1;SDS_P2;PMS_P1;PMS_P2;Temp;Humidity;BMP_temperature;BMP_pressure;BME280_temperature;BME280_humidity;BME280_pressure;Samples;Min_cycle;Max_cycle;Signal;HPM_P1;HPM_P2
2024/01/14 00:01:18;;;;;;;28.00;13.23;;;2.40;99.90;;;;;;5113145;28;20175;-69
2024/01/14 00:03:44;;;;;;;26.70;13.27;;;2.50;99.90;;;;;;5113020;28;20454;-69
2024/01/14 00:06:09;;;;;;;34.53;14.00;;;2.50;99.90;;;;;;5112906;28;20931;-69
2024/01/14 00:08:35;;;;;;;35.90;14.30;;;2.50;99.90;;;;;;5111291;28;20205;-68
2024/01/14 00:11:00;;;;;;;31.93;13.07;;;2.40;99.90;;;;;;5112634;28;20192;-68
2024/01/14 00:13:26;;;;;;;22.97;12.13;;;2.50;99.90;;;;;;5112760;28;20196;-68
2024/01/14 00:15:51;;;;;;;28.40;13.30;;;2.60;99.90;;;;;;5112638;28;20168;-68
2024/01/14 00:18:17;;;;;;;31.13;13.10;;;2.70;99.90;;;;;;5111371;28;20177;-68
2024/01/14 00:20:42;;;;;;;29.50;12.77;;;2.70;99.90;;;;;;5112791;28;20176;-68
2024/01/14 00:23:08;;;;;;;26.67;13.50;;;2.60;99.90;;;;;;5112426;28;20168;-68
2024/01/14 00:25:33;;;;;;;29.13;14.47;;;2.70;99.90;;;;;;5112452;28;20165;-68
2024/01/14 00:27:59;;;;;;;25.10;12.40;;;2.60;99.90;;;;;;5112540;28;20193;-68
2024/01/14 00:30:24;;;;;;;29.27;13.23;;;2.60;99.90;;;;;;5112702;28;20636;-68
2024/01/14 00:32:50;;;;;;;34.13;15.30;;;2.50;99.90;;;;;;5112696;28;20161;-68
2024/01/14 00:35:15;;;;;;;32.83;13.37;;;2.50;99.90;;;;;;5108259;28;20185;-68
2024/01/14 00:37:41;;;;;;;32.50;12.67;;;2.50;99.90;;;;;;5095504;28;20189;-68
2024/01/14 00:40:08;;;;;;;32.97;13.13;;;2.40;99.90;;;;;;5095164;28;20216;-68
2024/01/14 00:42:34;;;;;;;33.97;13.10;;;2.40;99.90;;;;;;5091646;28;20173;-69
2024/01/14 00:45:00;;;;;;;30.70;13.00;;;2.50;99.90;;;;;;5091590;28;20431;-68
2024/01/14 00:47:30;;;;;;;26.63;12.83;;;2.50;99.90;;;;;;5091403;28;20203;-74
2024/01/14 00:49:56;;;;;;;29.57;14.10;;;2.50;99.90;;;;;;5092005;28;20986;-71
2024/01/14 00:52:21;;;;;;;31.53;13.63;;;2.60;99.90;;;;;;5091008;28;20431;-70
2024/01/14 00:54:47;;;;;;;29.90;13.27;;;2.60;99.90;;;;;;5091339;28;21111;-71
2024/01/14 00:57:13;;;;;;;34.57;12.37;;;2.60;99.90;;;;;;5091521;28;20166;-71
2024/01/14 00:59:38;;;;;;;30.23;12.60;;;2.50;99.90;;;;;;5091967;28;20395;-72
2024/01/14 01:02:04;;;;;;;26.47;11.80;;;2.50;99.90;;;;;;5074413;28;20162;-72
2024/01/14 01:04:29;;;;;;;34.47;14.53;;;2.50;99.90;;;;;;5077368;28;20178;-72
2024/01/14 01:06:55;;;;;;;28.30;13.33;;;2.50;99.90;;;;;;5096007;28;20169;-72
2024/01/14 01:09:21;;;;;;;25.60;13.23;;;2.60;99.90;;;;;;5095989;28;20221;-72
2024/01/14 01:11:46;;;;;;;29.33;13.53;;;2.50;99.90;;;;;;5096011;28;20414;-72
2024/01/14 01:14:14;;;;;;;27.47;12.77;;;2.60;99.90;;;;;;5077258;28;20652;-73
2024/01/14 01:16:39;;;;;;;31.00;13.37;;;2.60;99.90;;;;;;5095372;28;20165;-72
2024/01/14 01:19:05;;;;;;;30.47;12.93;;;2.60;99.90;;;;;;5095428;28;20395;-72
2024/01/14 01:21:30;;;;;;;37.00;14.57;;;2.70;99.90;;;;;;5095881;28;20248;-72
2024/01/14 01:23:56;;;;;;;24.43;11.47;;;2.70;99.90;;;;;;5095385;28;20186;-72
2024/01/14 01:26:21;;;;;;;26.37;11.90;;;2.70;99.90;;;;;;5077485;28;20172;-73
2024/01/14 01:28:47;;;;;;;28.00;13.60;;;2.60;99.90;;;;;;5095599;28;20555;-73
2024/01/14 01:31:13;;;;;;;29.03;12.40;;;2.60;99.90;;;;;;5077603;28;20535;-73
2024/01/14 01:33:38;;;;;;;26.70;12.57;;;2.60;99.90;;;;;;5095570;28;20245;-72
2024/01/14 01:36:04;;;;;;;23.20;11.57;;;2.60;99.90;;;;;;5095306;28;20173;-74
2024/01/14 01:38:30;;;;;;;22.60;12.30;;;2.60;99.90;;;;;;5077457;28;20203;-72
2024/01/14 01:40:55;;;;;;;28.23;11.30;;;2.60;99.90;;;;;;5077193;28;20802;-73
2024/01/14 01:43:21;;;;;;;24.30;11.53;;;2.60;99.90;;;;;;5095334;28;20170;-73
2024/01/14 01:45:47;;;;;;;29.00;13.60;;;2.60;99.90;;;;;;5095099;28;20165;-73
2024/01/14 01:48:13;;;;;;;19.07;11.33;;;2.50;99.90;;;;;;5095239;28;20189;-72
2024/01/14 01:50:40;;;;;;;24.50;12.80;;;2.50;99.90;;;;;;5077395;28;20633;-72
2024/01/14 01:53:07;;;;;;;23.90;11.53;;;2.50;99.90;;;;;;5095128;28;20894;-71
2024/01/14 01:55:33;;;;;;;30.23;12.10;;;2.50;99.90;;;;;;5095022;28;20402;-71
2024/01/14 01:57:58;;;;;;;21.47;11.90;;;2.40;99.90;;;;;;5076975;28;20403;-71
2024/01/14 02:00:24;;;;;;;26.40;12.03;;;2.30;99.90;;;;;;5095178;28;20767;-71
2024/01/14 02:02:50;;;;;;;20.13;12.07;;;2.20;99.90;;;;;;5095149;28;20166;-71
2024/01/14 02:05:19;;;;;;;22.00;11.10;;;2.30;99.90;;;;;;5095036;28;20501;-71
2024/01/14 02:07:44;;;;;;;21.90;11.60;;;2.30;99.90;;;;;;5094973;28;20185;-71
2024/01/14 02:10:10;;;;;;;21.70;10.80;;;2.20;99.90;;;;;;5094850;28;20402;-71
2024/01/14 02:12:35;;;;;;;31.70;11.53;;;2.10;99.90;;;;;;5094791;28;20693;-71
2024/01/14 02:15:01;;;;;;;19.00;10.67;;;2.20;99.90;;;;;;5074981;28;20691;-72
2024/01/14 02:17:27;;;;;;;21.43;10.10;;;2.20;99.90;;;;;;5094659;28;20166;-72
2024/01/14 02:19:52;;;;;;;28.00;13.50;;;2.20;99.90;;;;;;5094866;28;20166;-72
2024/01/14 02:22:29;;;;;;;20.33;10.60;;;2.20;99.90;;;;;;5094954;28;20177;-73
2024/01/14 02:24:55;;;;;;;22.53;11.83;;;2.20;99.90;;;;;;5076292;28;20560;-72
2024/01/14 02:27:21;;;;;;;22.83;12.83;;;2.20;99.90;;;;;;5094444;28;20495;-72
2024/01/14 02:29:48;;;;;;;28.50;12.23;;;2.30;99.90;;;;;;5094517;28;20486;-73
2024/01/14 02:32:14;;;;;;;19.47;10.30;;;2.30;99.90;;;;;;5094435;28;20418;-73
2024/01/14 02:34:39;;;;;;;27.23;12.70;;;2.30;99.90;;;;;;5093856;28;20423;-72
2024/01/14 02:37:05;;;;;;;26.10;13.10;;;2.30;99.90;;;;;;5076139;28;20218;-74
2024/01/14 02:39:30;;;;;;;26.80;12.47;;;2.30;99.90;;;;;;5076198;28;20169;-73
2024/01/14 02:41:56;;;;;;;30.37;12.07;;;2.40;99.90;;;;;;5093911;28;20660;-74
2024/01/14 02:44:21;;;;;;;21.70;10.27;;;2.30;99.90;;;;;;5094149;28;20209;-72
2024/01/14 02:46:47;;;;;;;16.07;9.43;;;2.30;99.90;;;;;;5076001;28;20181;-73
2024/01/14 02:49:12;;;;;;;19.30;8.73;;;2.30;99.90;;;;;;5094096;28;20196;-74
2024/01/14 02:51:38;;;;;;;15.50;8.50;;;2.30;99.90;;;;;;5094048;28;20178;-73
2024/01/14 02:54:04;;;;;;;24.53;10.20;;;2.30;99.90;;;;;;5093837;28;20221;-71
2024/01/14 02:56:29;;;;;;;20.33;9.03;;;2.20;99.90;;;;;;5075814;28;20189;-71
2024/01/14 02:58:56;;;;;;;21.47;10.63;;;2.20;99.90;;;;;;5093762;28;20407;-71
2024/01/14 03:01:21;;;;;;;23.37;10.90;;;2.20;99.90;;;;;;5075819;28;20169;-71
2024/01/14 03:03:47;;;;;;;21.27;12.17;;;2.20;99.90;;;;;;5093602;28;21039;-71
2024/01/14 03:06:12;;;;;;;21.40;9.93;;;2.20;99.90;;;;;;5093778;28;20717;-72
2024/01/14 03:08:38;;;;;;;17.57;9.77;;;2.30;99.90;;;;;;5093768;28;20675;-72
2024/01/14 03:11:04;;;;;;;19.17;9.57;;;2.20;99.90;;;;;;5093750;28;20211;-72
2024/01/14 03:13:30;;;;;;;16.37;9.30;;;2.20;99.90;;;;;;5093705;28;20415;-74
2024/01/14 03:15:55;;;;;;;21.80;10.80;;;2.20;99.90;;;;;;5093434;28;20170;-74
2024/01/14 03:18:21;;;;;;;22.20;10.73;;;2.20;99.90;;;;;;5075494;28;20216;-73
2024/01/14 03:20:47;;;;;;;20.60;9.93;;;2.20;99.90;;;;;;5093621;28;20169;-72
2024/01/14 03:23:12;;;;;;;19.17;9.87;;;2.10;99.90;;;;;;5093434;28;20173;-73
2024/01/14 03:25:38;;;;;;;20.00;10.27;;;2.20;99.90;;;;;;5074996;28;20779;-73
2024/01/14 03:28:03;;;;;;;15.00;8.60;;;2.20;99.90;;;;;;5093426;28;20606;-74
2024/01/14 03:30:29;;;;;;;19.20;9.33;;;2.20;99.90;;;;;;5075037;28;20166;-74
2024/01/14 03:32:54;;;;;;;19.07;9.40;;;2.20;99.90;;;;;;5093545;28;20254;-73
2024/01/14 03:35:20;;;;;;;17.33;8.60;;;2.20;99.90;;;;;;5092898;28;20588;-73
2024/01/14 03:37:46;;;;;;;18.00;9.07;;;2.20;99.90;;;;;;5093112;28;20166;-71
2024/01/14 03:40:12;;;;;;;14.13;8.20;;;2.20;99.90;;;;;;5093180;28;20252;-72
2024/01/14 03:42:37;;;;;;;18.13;9.43;;;2.30;99.90;;;;;;5093176;28;20197;-72
2024/01/14 03:45:04;;;;;;;23.57;10.20;;;2.30;99.90;;;;;;5074593;28;20731;-72
2024/01/14 03:47:29;;;;;;;16.93;9.40;;;2.20;99.90;;;;;;5093007;28;20203;-73
2024/01/14 03:49:55;;;;;;;22.60;10.33;;;2.30;99.90;;;;;;5093072;28;20395;-73
2024/01/14 03:52:21;;;;;;;19.70;11.20;;;2.30;99.90;;;;;;5092976;28;20182;-75
2024/01/14 03:54:46;;;;;;;16.73;8.83;;;2.30;99.90;;;;;;5092673;28;20174;-71
2024/01/14 03:57:11;;;;;;;19.83;9.30;;;2.30;99.90;;;;;;5074580;28;20166;-71
2024/01/14 03:59:38;;;;;;;19.00;9.07;;;2.30;99.90;;;;;;5092610;28;20231;-72
2024/01/14 04:02:03;;;;;;;17.87;9.67;;;2.30;99.90;;;;;;5092816;28;20173;-73
2024/01/14 04:04:29;;;;;;;17.13;7.70;;;2.30;99.90;;;;;;5092482;28;20761;-72
2024/01/14 04:06:54;;;;;;;21.60;10.17;;;2.30;99.90;;;;;;5092649;28;20169;-73
2024/01/14 04:09:20;;;;;;;17.80;8.80;;;2.30;99.90;;;;;;5092594;28;20205;-73
2024/01/14 04:11:45;;;;;;;14.97;8.90;;;2.30;99.90;;;;;;5092599;28;20168;-72
2024/01/14 04:14:11;;;;;;;13.33;7.33;;;2.20;99.90;;;;;;5092214;28;20188;-73
2024/01/14 04:16:40;;;;;;;14.43;8.67;;;2.20;99.90;;;;;;5074269;28;20223;-72
2024/01/14 04:19:06;;;;;;;23.50;11.90;;;2.10;99.90;;;;;;5074225;28;20165;-72
2024/01/14 04:21:32;;;;;;;18.43;8.70;;;2.10;99.90;;;;;;5092546;28;20457;-74
2024/01/14 04:24:04;;;;;;;13.57;6.67;;;2.00;99.90;;;;;;5092079;28;20424;-72
2024/01/14 04:26:29;;;;;;;13.67;7.23;;;2.10;99.90;;;;;;5092391;28;20157;-72
2024/01/14 04:28:56;;;;;;;12.17;7.83;;;2.10;99.90;;;;;;5073974;28;20455;-71
2024/01/14 04:31:22;;;;;;;18.37;8.03;;;2.10;99.90;;;;;;5092296;28;20240;-72
2024/01/14 04:33:48;;;;;;;15.77;8.17;;;2.10;99.90;;;;;;5092086;28;20518;-72
2024/01/14 04:36:17;;;;;;;23.60;9.40;;;2.00;99.90;;;;;;5073983;28;20682;-72
2024/01/14 04:38:43;;;;;;;13.37;7.23;;;2.10;99.90;;;;;;5091863;28;20464;-72
2024/01/14 04:41:09;;;;;;;16.80;9.40;;;2.10;99.90;;;;;;5090998;28;20422;-71
2024/01/14 04:43:35;;;;;;;14.90;7.67;;;2.10;99.90;;;;;;5074019;28;20942;-72
2024/01/14 04:46:01;;;;;;;15.77;6.73;;;2.00;99.90;;;;;;5090777;28;20551;-71
2024/01/14 04:48:27;;;;;;;12.30;6.70;;;2.00;99.90;;;;;;5092068;28;20597;-71
2024/01/14 04:50:52;;;;;;;14.80;7.70;;;2.00;99.90;;;;;;5092077;28;20162;-72
2024/01/14 04:53:18;;;;;;;15.17;7.40;;;2.00;99.90;;;;;;5091907;28;20248;-73
2024/01/14 04:55:43;;;;;;;18.13;8.10;;;2.10;99.90;;;;;;5091515;28;20696;-72
2024/01/14 04:58:09;;;;;;;17.43;8.60;;;2.00;99.90;;;;;;5091834;28;20165;-73
2024/01/14 05:00:35;;;;;;;17.10;7.67;;;2.00;99.90;;;;;;5091936;28;20176;-73
2024/01/14 05:03:00;;;;;;;20.77;8.67;;;2.00;99.90;;;;;;5091824;28;20161;-74
2024/01/14 05:05:26;;;;;;;17.13;9.00;;;2.00;99.90;;;;;;5073555;28;20431;-73
2024/01/14 05:07:51;;;;;;;19.13;9.10;;;1.90;99.90;;;;;;5091784;28;20229;-71
2024/01/14 05:10:17;;;;;;;19.17;8.57;;;1.90;99.90;;;;;;5091692;28;20189;-72
2024/01/14 05:12:42;;;;;;;15.00;8.00;;;1.80;99.90;;;;;;5091798;28;20173;-72
2024/01/14 05:15:09;;;;;;;17.97;8.13;;;1.80;99.90;;;;;;5091523;28;20181;-71
2024/01/14 05:17:34;;;;;;;16.47;7.63;;;1.80;99.90;;;;;;5091521;28;20768;-72
2024/01/14 05:20:00;;;;;;;20.40;8.77;;;1.80;99.90;;;;;;5073491;28;20717;-72
2024/01/14 05:22:26;;;;;;;23.73;11.43;;;1.80;99.90;;;;;;5073694;28;20173;-71
2024/01/14 05:24:51;;;;;;;20.37;10.90;;;1.90;99.90;;;;;;5091471;28;21142;-72
2024/01/14 05:27:17;;;;;;;17.37;9.70;;;2.00;99.90;;;;;;5091502;28;20181;-72
2024/01/14 05:29:43;;;;;;;17.53;9.10;;;2.10;99.90;;;;;;5091528;28;20161;-73
2024/01/14 05:32:15;;;;;;;16.33;7.70;;;2.10;99.90;;;;;;5091482;28;20174;-74
2024/01/14 05:34:42;;;;;;;14.83;6.67;;;2.10;99.90;;;;;;5091380;28;20419;-73
2024/01/14 05:37:07;;;;;;;16.87;8.13;;;2.20;99.90;;;;;;5091557;28;20395;-73
2024/01/14 05:39:33;;;;;;;16.13;8.77;;;2.20;99.90;;;;;;5091630;28;20407;-73
2024/01/14 05:41:59;;;;;;;17.87;8.27;;;2.10;99.90;;;;;;5091545;28;20248;-72
2024/01/14 05:44:25;;;;;;;16.40;9.43;;;2.10;99.90;;;;;;5091351;28;20530;-72
2024/01/14 05:46:51;;;;;;;18.73;8.60;;;2.10;99.90;;;;;;5091428;28;20169;-73
2024/01/14 05:49:17;;;;;;;17.83;8.20;;;2.00;99.90;;;;;;5092361;28;20447;-72
2024/01/14 05:51:43;;;;;;;14.77;7.90;;;2.00;99.90;;;;;;5095274;28;20442;-72
2024/01/14 05:54:08;;;;;;;17.00;6.80;;;1.90;99.90;;;;;;5094952;28;20177;-74
2024/01/14 05:56:34;;;;;;;17.63;9.97;;;1.80;99.90;;;;;;5095131;28;20157;-74
2024/01/14 05:59:00;;;;;;;16.07;8.03;;;1.80;99.90;;;;;;5095144;28;20172;-72
2024/01/14 06:01:27;;;;;;;15.50;8.13;;;1.80;99.90;;;;;;5095161;28;20189;-73
2024/01/14 06:03:52;;;;;;;15.23;7.80;;;1.70;99.90;;;;;;5094686;28;20491;-72
2024/01/14 06:06:18;;;;;;;13.17;7.27;;;1.70;99.90;;;;;;5094860;28;20403;-73
2024/01/14 06:08:44;;;;;;;13.90;7.60;;;1.60;99.90;;;;;;5076389;28;20193;-73
2024/01/14 06:11:10;;;;;;;12.70;7.03;;;1.60;99.90;;;;;;5095027;28;20404;-74
2024/01/14 06:13:35;;;;;;;18.33;8.10;;;1.50;99.90;;;;;;5094965;28;20559;-73
2024/01/14 06:16:01;;;;;;;13.97;7.63;;;1.50;99.90;;;;;;5076431;28;20412;-72
2024/01/14 06:18:28;;;;;;;16.43;7.17;;;1.50;99.90;;;;;;5076680;28;20169;-72
2024/01/14 06:20:55;;;;;;;19.87;7.63;;;1.40;99.90;;;;;;5094759;28;20547;-72
2024/01/14 06:23:21;;;;;;;15.00;6.70;;;1.40;99.90;;;;;;5094591;28;20395;-73
2024/01/14 06:25:47;;;;;;;14.50;5.93;;;1.40;99.90;;;;;;5094351;28;20415;-72
2024/01/14 06:28:13;;;;;;;13.30;6.00;;;1.40;99.90;;;;;;5094773;28;20439;-73
2024/01/14 06:30:38;;;;;;;14.13;8.10;;;1.40;99.90;;;;;;5094706;28;20162;-73
2024/01/14 06:33:04;;;;;;;17.23;8.10;;;1.40;99.90;;;;;;5094594;28;20229;-74
2024/01/14 06:35:30;;;;;;;14.77;7.07;;;1.60;99.90;;;;;;5075993;28;20189;-73
2024/01/14 06:37:55;;;;;;;17.87;9.23;;;1.60;99.90;;;;;;5094411;28;20432;-72
2024/01/14 06:40:21;;;;;;;16.10;6.90;;;1.70;99.90;;;;;;5094588;28;20770;-72
2024/01/14 06:42:46;;;;;;;17.40;7.40;;;1.70;99.90;;;;;;5076229;28;20200;-72
2024/01/14 06:45:13;;;;;;;21.93;6.30;;;1.70;99.90;;;;;;5075839;28;20307;-72
2024/01/14 06:47:39;;;;;;;11.90;5.70;;;1.80;99.90;;;;;;5094225;28;20185;-70
2024/01/14 06:50:05;;;;;;;12.20;5.90;;;1.90;99.90;;;;;;5094197;28;20457;-71
2024/01/14 06:52:30;;;;;;;12.23;5.80;;;2.00;99.90;;;;;;5094085;28;20196;-73
2024/01/14 06:54:56;;;;;;;13.87;6.23;;;2.00;99.90;;;;;;5093741;28;20415;-73
2024/01/14 06:57:22;;;;;;;17.57;7.70;;;2.20;99.90;;;;;;5094070;28;20185;-73
2024/01/14 06:59:48;;;;;;;14.57;7.67;;;2.20;99.90;;;;;;5093665;28;20244;-74
2024/01/14 07:02:13;;;;;;;14.23;7.20;;;2.20;99.90;;;;;;5093905;28;20880;-73
2024/01/14 07:04:39;;;;;;;14.20;6.43;;;2.30;99.90;;;;;;5093550;28;20458;-74
2024/01/14 07:07:05;;;;;;;13.10;6.70;;;2.30;99.90;;;;;;5093815;28;20189;-73
2024/01/14 07:09:34;;;;;;;13.80;6.60;;;2.40;99.90;;;;;;5093760;28;20444;-74
2024/01/14 07:12:00;;;;;;;12.57;6.40;;;2.40;99.90;;;;;;5093763;28;20165;-73
2024/01/14 07:14:26;;;;;;;18.53;7.70;;;2.40;99.90;;;;;;5093561;28;20415;-72
2024/01/14 07:16:51;;;;;;;12.63;6.90;;;2.40;99.90;;;;;;5093641;28;20406;-71
2024/01/14 07:19:17;;;;;;;10.97;6.37;;;2.40;99.90;;;;;;5093582;28;20245;-74
2024/01/14 07:21:42;;;;;;;13.67;6.70;;;2.40;99.90;;;;;;5075391;28;20606;-74
2024/01/14 07:24:08;;;;;;;9.77;4.90;;;2.40;99.90;;;;;;5093200;28;20754;-73
2024/01/14 07:26:33;;;;;;;12.80;6.10;;;2.40;99.90;;;;;;5075331;28;20176;-72
2024/01/14 07:28:59;;;;;;;16.40;7.23;;;2.40;99.90;;;;;;5093416;28;20240;-73
2024/01/14 07:31:30;;;;;;;11.10;5.70;;;2.40;99.90;;;;;;5093533;28;20596;-73
2024/01/14 07:33:55;;;;;;;13.10;6.00;;;2.20;99.90;;;;;;5092950;28;20264;-74
2024/01/14 07:36:21;;;;;;;12.10;5.57;;;2.30;99.90;;;;;;5093181;28;20495;-73
2024/01/14 07:38:46;;;;;;;9.37;5.00;;;2.20;99.90;;;;;;5093110;28;20165;-73
2024/01/14 07:41:13;;;;;;;13.70;5.50;;;2.20;99.90;;;;;;5093287;28;20166;-73
2024/01/14 07:43:39;;;;;;;12.17;6.67;;;2.10;99.90;;;;;;5074978;28;20185;-73
2024/01/14 07:46:06;;;;;;;11.33;5.90;;;2.10;99.90;;;;;;5092829;28;20461;-73
2024/01/14 07:48:33;;;;;;;13.70;5.53;;;2.10;99.90;;;;;;5092986;28;20439;-71
2024/01/14 07:50:59;;;;;;;17.13;6.67;;;2.00;99.90;;;;;;5092803;28;20470;-74
2024/01/14 07:53:25;;;;;;;20.20;9.10;;;2.00;99.90;;;;;;5092962;28;20408;-74
2024/01/14 07:55:50;;;;;;;10.37;6.13;;;2.00;99.90;;;;;;5092638;28;20886;-74
2024/01/14 07:58:16;;;;;;;10.37;6.40;;;2.00;99.90;;;;;;5092858;28;20169;-74
2024/01/14 08:00:42;;;;;;;10.87;5.80;;;1.90;99.90;;;;;;5092975;28;20659;-72
2024/01/14 08:03:08;;;;;;;12.20;6.47;;;2.00;99.90;;;;;;5092649;28;20197;-72
2024/01/14 08:05:35;;;;;;;12.43;6.90;;;1.90;99.90;;;;;;5092484;28;20435;-72
2024/01/14 08:08:01;;;;;;;14.73;6.83;;;1.90;99.90;;;;;;5092580;28;20197;-73
2024/01/14 08:10:27;;;;;;;18.20;8.30;;;1.90;99.90;;;;;;5092718;28;20395;-73
2024/01/14 08:12:53;;;;;;;10.40;5.97;;;2.00;99.90;;;;;;5091843;28;20403;-72
2024/01/14 08:15:18;;;;;;;14.27;7.80;;;2.00;99.90;;;;;;5092255;28;20534;-72
2024/01/14 08:17:44;;;;;;;13.23;7.00;;;2.00;99.90;;;;;;5092423;28;20176;-73
2024/01/14 08:20:10;;;;;;;23.37;7.93;;;2.00;99.90;;;;;;5092666;28;20170;-73
2024/01/14 08:22:37;;;;;;;12.73;5.80;;;2.00;99.90;;;;;;5092606;28;20184;-73
2024/01/14 08:25:03;;;;;;;12.00;6.57;;;2.00;99.90;;;;;;5092279;28;20431;-72
2024/01/14 08:27:30;;;;;;;9.63;6.40;;;2.00;99.90;;;;;;5074138;28;20780;-73
2024/01/14 08:29:55;;;;;;;12.33;7.37;;;2.00;99.90;;;;;;5092336;28;20404;-74
2024/01/14 08:32:21;;;;;;;9.73;6.10;;;2.10;99.90;;;;;;5092092;28;20400;-74
2024/01/14 08:34:47;;;;;;;10.50;5.70;;;2.10;99.90;;;;;;5092029;28;20679;-74
2024/01/14 08:37:12;;;;;;;12.53;5.60;;;2.20;99.90;;;;;;5092100;28;20165;-73
2024/01/14 08:39:38;;;;;;;10.87;5.90;;;2.20;99.90;;;;;;5074100;28;20302;-72
2024/01/14 08:42:03;;;;;;;12.87;7.33;;;2.30;99.90;;;;;;5092158;28;20256;-72
2024/01/14 08:44:29;;;;;;;16.77;6.60;;;2.40;99.90;;;;;;5091903;28;20221;-74
2024/01/14 08:46:54;;;;;;;10.77;5.60;;;2.50;99.90;;;;;;5091949;28;20763;-73
2024/01/14 08:49:20;;;;;;;9.70;6.83;;;2.50;99.90;;;;;;5091854;28;20187;-74
2024/01/14 08:51:46;;;;;;;11.87;5.90;;;2.40;99.90;;;;;;5091962;28;20549;-72
2024/01/14 08:54:11;;;;;;;13.37;6.37;;;2.30;99.90;;;;;;5091724;28;20953;-71
2024/01/14 08:56:37;;;;;;;9.73;5.70;;;2.40;99.90;;;;;;5091946;28;20170;-72
2024/01/14 08:59:03;;;;;;;12.00;6.23;;;2.40;99.90;;;;;;5091776;28;20173;-72
2024/01/14 09:01:29;;;;;;;8.07;5.70;;;2.40;99.90;;;;;;5091839;28;20170;-73
2024/01/14 09:03:54;;;;;;;12.87;6.40;;;2.30;99.90;;;;;;5073226;28;20481;-73
2024/01/14 09:06:20;;;;;;;12.57;5.73;;;2.30;99.90;;;;;;5091810;28;20177;-72
2024/01/14 09:08:46;;;;;;;11.63;5.60;;;2.40;99.90;;;;;;5091707;28;20280;-73
2024/01/14 09:11:12;;;;;;;14.13;5.63;;;2.30;99.90;;;;;;5073696;28;20438;-73
2024/01/14 09:13:38;;;;;;;9.07;5.17;;;2.40;99.90;;;;;;5091804;28;20186;-73
2024/01/14 09:16:05;;;;;;;10.17;6.40;;;2.40;99.90;;;;;;5091426;28;20487;-72
2024/01/14 09:18:31;;;;;;;12.97;6.00;;;2.40;99.90;;;;;;5091678;28;20219;-73
2024/01/14 09:20:56;;;;;;;11.93;6.60;;;2.40;99.90;;;;;;5091717;28;20408;-73
2024/01/14 09:23:22;;;;;;;14.60;6.23;;;2.40;99.90;;;;;;5092714;28;20255;-73
2024/01/14 09:25:47;;;;;;;8.93;4.83;;;2.40;99.90;;;;;;5095539;28;20173;-73
2024/01/14 09:28:13;;;;;;;8.83;5.10;;;2.40;99.90;;;;;;5095616;28;20627;-72
2024/01/14 09:30:39;;;;;;;15.50;6.23;;;2.40;99.90;;;;;;5095560;28;20193;-71
2024/01/14 09:33:04;;;;;;;6.90;5.20;;;2.40;99.90;;;;;;5095618;28;20186;-72
2024/01/14 09:35:30;;;;;;;8.10;5.43;;;2.30;99.90;;;;;;5095334;28;20239;-72
2024/01/14 09:37:55;;;;;;;11.37;4.60;;;2.20;99.90;;;;;;5095521;28;20575;-72
2024/01/14 09:40:21;;;;;;;6.87;4.77;;;2.20;99.90;;;;;;5077325;28;20173;-71
2024/01/14 09:42:50;;;;;;;10.37;5.23;;;2.20;99.90;;;;;;5076912;28;20166;-72
2024/01/14 09:45:16;;;;;;;8.43;4.67;;;2.10;99.90;;;;;;5076648;28;20193;-72
2024/01/14 09:47:42;;;;;;;13.17;5.50;;;2.10;99.90;;;;;;5077331;28;21096;-72
2024/01/14 09:50:09;;;;;;;10.60;5.10;;;2.10;99.90;;;;;;5095217;28;20431;-71
2024/01/14 09:52:37;;;;;;;6.80;4.07;;;2.10;99.90;;;;;;5095326;28;20996;-72
2024/01/14 09:55:03;;;;;;;7.67;4.73;;;2.10;99.90;;;;;;5076572;28;20481;-73
2024/01/14 09:57:30;;;;;;;8.90;4.70;;;2.10;99.90;;;;;;5095227;28;20407;-72
2024/01/14 10:00:03;;;;;;;6.83;4.50;;;2.10;99.90;;;;;;5095085;28;20510;-71
2024/01/14 10:02:31;;;;;;;5.17;3.70;;;2.20;99.90;;;;;;5095169;28;20418;-72
2024/01/14 10:04:57;;;;;;;11.00;4.20;;;2.20;99.90;;;;;;5094990;28;20463;-72
2024/01/14 10:07:24;;;;;;;10.83;3.73;;;2.40;99.90;;;;;;5076807;28;20403;-72
2024/01/14 10:09:50;;;;;;;4.50;4.10;;;2.20;99.90;;;;;;5094641;28;20181;-69
2024/01/14 10:12:16;;;;;;;10.93;5.07;;;2.10;99.90;;;;;;5094226;28;20454;-69
2024/01/14 10:14:41;;;;;;;9.53;5.50;;;2.10;99.90;;;;;;5094022;28;20910;-69
2024/01/14 10:17:07;;;;;;;9.30;3.83;;;2.00;99.90;;;;;;5094242;28;20161;-69
2024/01/14 10:19:33;;;;;;;12.60;5.57;;;2.10;99.90;;;;;;5094105;28;20162;-69
2024/01/14 10:21:58;;;;;;;8.60;4.50;;;2.00;99.90;;;;;;5094436;28;20426;-69
2024/01/14 10:24:24;;;;;;;7.47;4.50;;;2.10;99.90;;;;;;5093718;28;20182;-69
2024/01/14 10:26:53;;;;;;;5.60;3.77;;;2.10;99.90;;;;;;5094108;28;20700;-69
2024/01/14 10:29:19;;;;;;;6.90;3.97;;;2.20;99.90;;;;;;5093900;28;20185;-69
2024/01/14 10:31:45;;;;;;;4.77;4.27;;;2.40;99.90;;;;;;5094028;28;20776;-69
2024/01/14 10:34:11;;;;;;;8.50;5.20;;;2.50;99.90;;;;;;5093718;28;20233;-69
2024/01/14 10:36:37;;;;;;;7.60;5.03;;;2.60;99.90;;;;;;5093109;28;20941;-69
2024/01/14 10:39:04;;;;;;;11.33;4.73;;;2.60;99.90;;;;;;5094442;28;20538;-69
2024/01/14 10:41:30;;;;;;;8.03;4.50;;;2.70;99.90;;;;;;5094346;28;20395;-69
2024/01/14 10:43:55;;;;;;;12.00;5.60;;;2.70;99.90;;;;;;5094048;28;20427;-69
2024/01/14 10:46:22;;;;;;;8.83;4.50;;;2.60;99.90;;;;;;5094197;28;20166;-69
2024/01/14 10:49:02;;;;;;;10.10;5.50;;;2.50;99.90;;;;;;5094153;28;20197;-69
2024/01/14 10:51:31;;;;;;;9.53;4.93;;;2.50;99.90;;;;;;5094060;28;20416;-69
2024/01/14 10:54:23;;;;;;;6.30;4.97;;;2.50;99.90;;;;;;5092644;28;20463;-69
2024/01/14 10:57:04;;;;;;;5.87;4.53;;;2.40;99.90;;;;;;5091799;28;20938;-69
2024/01/14 10:59:35;;;;;;;8.30;4.40;;;2.50;99.90;;;;;;5091815;28;20403;-69
2024/01/14 11:02:09;;;;;;;9.00;5.63;;;2.40;99.90;;;;;;5093386;28;20442;-69
2024/01/14 11:04:36;;;;;;;7.10;4.03;;;2.40;99.90;;;;;;5093060;28;20415;-69
2024/01/14 11:07:01;;;;;;;9.80;4.47;;;2.50;99.90;;;;;;5093249;28;20470;-69
2024/01/14 11:09:27;;;;;;;10.00;5.47;;;2.70;99.90;;;;;;5093163;28;20443;-69
2024/01/14 11:12:01;;;;;;;7.20;4.90;;;2.90;99.90;;;;;;5093280;28;20168;-68
2024/01/14 11:14:57;;;;;;;8.03;5.40;;;3.00;99.90;;;;;;5090814;28;20238;-68
2024/01/14 11:17:49;;;;;;;7.50;4.77;;;3.10;99.90;;;;;;5090719;28;20414;-69
2024/01/14 11:20:18;;;;;;;7.60;5.57;;;3.20;99.90;;;;;;5091999;28;20442;-70
2024/01/14 11:22:44;;;;;;;10.47;5.50;;;3.20;99.90;;;;;;5090377;28;20410;-69
2024/01/14 11:25:18;;;;;;;14.03;4.80;;;3.30;99.90;;;;;;5092538;28;20855;-69
2024/01/14 11:27:44;;;;;;;11.13;6.13;;;3.30;99.90;;;;;;5090300;28;20694;-70
2024/01/14 11:30:11;;;;;;;7.00;4.50;;;3.40;99.90;;;;;;5092941;28;20403;-70
2024/01/14 11:32:37;;;;;;;10.43;4.77;;;3.50;99.90;;;;;;5092703;28;20845;-70
2024/01/14 11:35:03;;;;;;;12.87;7.70;;;3.70;99.90;;;;;;5089789;28;20507;-69
2024/01/14 11:37:39;;;;;;;9.43;5.40;;;3.80;99.90;;;;;;5092869;28;20172;-69
2024/01/14 11:42:50;;;;;;;9.23;6.00;;;4.00;99.90;;;;;;5092507;28;20428;-69
2024/01/14 11:45:25;;;;;;;7.37;4.97;;;3.90;99.90;;;;;;5091057;28;20419;-69
2024/01/14 11:47:52;;;;;;;5.60;4.50;;;3.90;99.90;;;;;;5089860;28;20513;-69
2024/01/14 11:50:19;;;;;;;8.43;5.17;;;3.90;99.90;;;;;;5092250;28;20396;-68
2024/01/14 11:52:47;;;;;;;6.63;4.50;;;4.00;99.90;;;;;;5092364;28;20415;-69
2024/01/14 11:55:14;;;;;;;10.03;4.77;;;3.70;99.90;;;;;;5092182;28;20969;-69
2024/01/14 11:57:40;;;;;;;7.17;5.00;;;3.60;99.90;;;;;;5092110;28;20450;-68
2024/01/14 12:00:07;;;;;;;5.30;4.03;;;3.50;99.90;;;;;;5092128;28;20399;-68
2024/01/14 12:02:33;;;;;;;4.97;3.60;;;3.10;99.90;;;;;;5074241;28;20435;-68
2024/01/14 12:05:20;;;;;;;4.77;3.33;;;3.00;99.90;;;;;;5091864;28;20980;-69
2024/01/14 12:07:47;;;;;;;5.43;3.63;;;2.80;99.90;;;;;;5091635;28;20800;-69
2024/01/14 12:10:14;;;;;;;7.97;5.20;;;2.70;99.90;;;;;;5092570;28;20446;-68
2024/01/14 12:12:40;;;;;;;8.13;5.00;;;2.70;99.90;;;;;;5092450;28;20930;-68
2024/01/14 12:15:06;;;;;;;5.63;3.80;;;2.70;99.90;;;;;;5092245;28;20526;-69
2024/01/14 12:17:31;;;;;;;7.60;4.30;;;2.70;99.90;;;;;;5074316;28;20451;-69
2024/01/14 12:20:01;;;;;;;7.33;4.70;;;2.80;99.90;;;;;;5092183;28;20807;-68
2024/01/14 12:22:27;;;;;;;6.30;4.47;;;2.80;99.90;;;;;;5092401;28;20181;-69
2024/01/14 12:24:54;;;;;;;5.50;4.00;;;2.90;99.90;;;;;;5092108;28;20454;-69
2024/01/14 12:27:19;;;;;;;5.17;3.90;;;2.90;99.90;;;;;;5092089;28;20408;-69
2024/01/14 12:29:46;;;;;;;9.40;4.50;;;3.00;99.90;;;;;;5092190;28;20451;-69
2024/01/14 12:32:11;;;;;;;4.90;3.40;;;3.20;99.90;;;;;;5074061;28;20590;-69
2024/01/14 12:34:43;;;;;;;6.10;3.77;;;3.20;99.90;;;;;;5091860;28;20430;-69
2024/01/14 12:37:10;;;;;;;6.70;4.50;;;3.10;99.90;;;;;;5092525;28;20644;-69
2024/01/14 12:39:36;;;;;;;6.90;3.90;;;3.00;99.90;;;;;;5092224;28;20470;-69
2024/01/14 12:42:02;;;;;;;6.77;3.83;;;2.90;99.90;;;;;;5092114;28;20418;-68
2024/01/14 12:44:31;;;;;;;7.93;4.30;;;2.90;99.90;;;;;;5091596;28;20419;-68